Time;durP1;ratioP1;P1;durP2;ratioP2;P2;SDS_P1;SDS_P2;PMS_P1;PMS_P2;Temp;Humidity;BMP_temperature;BMP_pressure;BME280_temperature;BME280_humidity;BME280_pressure;Samples;Min_cycle;Max_cycle;Signal;HPM_P1;HPM_P2
2022/10/11 00:02:11;;;;;;;1999.90;999.90;;;10.90;99.90;;;;;;5035950;28;20477;-71
2022/10/11 00:04:38;;;;;;;1999.90;999.90;;;10.90;99.90;;;;;;5030212;28;20460;-71
2022/10/11 00:07:05;;;;;;;1999.90;999.90;;;10.80;99.90;;;;;;5024405;28;20499;-71
2022/10/11 00:09:32;;;;;;;1999.90;999.90;;;10.70;99.90;;;;;;5027770;28;20530;-69
2022/10/11 00:11:58;;;;;;;1999.90;999.90;;;10.70;99.90;;;;;;5036250;28;20447;-70
2022/10/11 00:14:26;;;;;;;1999.90;999.90;;;10.70;99.90;;;;;;5035709;28;21077;-68
2022/10/11 00:16:53;;;;;;;1999.90;999.90;;;10.60;99.90;;;;;;5036241;28;20443;-69
2022/10/11 00:19:22;;;;;;;1999.90;999.90;;;10.60;99.90;;;;;;5028335;28;20471;-68
2022/10/11 00:21:49;;;;;;;1999.90;999.90;;;10.50;99.90;;;;;;5027262;28;20498;-70
2022/10/11 00:24:16;;;;;;;1999.90;999.90;;;10.50;99.90;;;;;;5052763;22;20493;-69
2022/10/11 00:26:43;;;;;;;1999.90;999.90;;;10.40;99.90;;;;;;5017751;28;21002;-69
2022/10/11 00:29:11;;;;;;;1999.90;999.90;;;10.40;99.90;;;;;;5014762;28;20451;-72
2022/10/11 00:31:38;;;;;;;1999.90;999.90;;;10.40;99.90;;;;;;5015028;28;20454;-71
2022/10/11 00:34:05;;;;;;;1999.90;999.90;;;10.40;99.90;;;;;;5022388;28;20502;-71
2022/10/11 00:36:33;;;;;;;1999.90;999.90;;;10.30;99.90;;;;;;5042069;28;20439;-71
2022/10/11 00:39:00;;;;;;;1999.90;999.90;;;10.30;99.90;;;;;;5033934;28;20846;-70
2022/10/11 00:41:27;;;;;;;1999.90;999.90;;;10.20;99.90;;;;;;5034500;28;20455;-70
2022/10/11 00:44:10;;;;;;;1999.90;999.90;;;10.30;99.90;;;;;;5034255;28;20470;-70
2022/10/11 00:46:37;;;;;;;1999.90;999.90;;;10.30;99.90;;;;;;5032632;28;20487;-71
2022/10/11 00:49:10;;;;;;;1999.90;999.90;;;10.30;99.90;;;;;;5041778;28;20466;-70
2022/10/11 00:51:43;;;;;;;1999.90;999.90;;;10.20;99.90;;;;;;5047583;28;20453;-70
2022/10/11 00:54:14;;;;;;;1999.90;999.90;;;10.20;99.90;;;;;;5054196;28;20465;-70
2022/10/11 00:56:43;;;;;;;1999.90;999.90;;;10.10;99.90;;;;;;5054044;28;20783;-71
2022/10/11 00:59:14;;;;;;;1999.90;999.90;;;10.10;99.90;;;;;;5054001;28;20801;-70
2022/10/11 01:01:41;;;;;;;1999.90;999.90;;;10.10;99.90;;;;;;5053865;28;20443;-71
2022/10/11 01:04:07;;;;;;;1999.90;999.90;;;10.00;99.90;;;;;;5043003;28;20493;-71
2022/10/11 01:06:35;;;;;;;1999.90;999.90;;;10.10;99.90;;;;;;5053402;28;21005;-71
2022/10/11 01:09:03;;;;;;;1999.90;999.90;;;10.10;99.90;;;;;;5053926;28;20450;-70
2022/10/11 01:11:32;;;;;;;1999.90;999.90;;;10.10;99.90;;;;;;5053983;28;20461;-70
2022/10/11 01:14:23;;;;;;;1999.90;999.90;;;10.10;99.90;;;;;;5053671;28;20470;-70
2022/10/11 01:16:57;;;;;;;1999.90;999.90;;;10.10;99.90;;;;;;5045744;28;20463;-70
2022/10/11 01:19:52;;;;;;;1999.90;999.90;;;10.10;99.90;;;;;;5045326;28;20426;-69
2022/10/11 01:22:36;;;;;;;1999.90;999.90;;;10.00;99.90;;;;;;5042729;28;20462;-70
2022/10/11 01:25:19;;;;;;;1999.90;999.90;;;10.00;99.90;;;;;;5053346;28;20442;-69
2022/10/11 01:27:59;;;;;;;1999.90;999.90;;;10.00;99.90;;;;;;5053631;28;20763;-70
2022/10/11 01:30:29;;;;;;;1999.90;999.90;;;9.90;99.90;;;;;;5053441;28;20831;-70
2022/10/11 01:33:09;;;;;;;1999.90;999.90;;;9.90;99.90;;;;;;5042063;28;20479;-69
2022/10/11 01:35:40;;;;;;;1999.90;999.90;;;9.90;99.90;;;;;;5034506;28;20443;-69
2022/10/11 01:38:13;;;;;;;1999.90;999.90;;;9.90;99.90;;;;;;5033146;28;20962;-70
2022/10/11 01:40:45;;;;;;;1999.90;999.90;;;9.80;99.90;;;;;;5033415;28;20827;-70
2022/10/11 01:43:14;;;;;;;1999.90;999.90;;;9.90;99.90;;;;;;5033328;28;20975;-70
2022/10/11 01:45:43;;;;;;;1999.90;999.90;;;9.90;99.90;;;;;;5037693;28;20478;-69
2022/10/11 01:48:13;;;;;;;1999.90;999.90;;;9.90;99.90;;;;;;5043557;28;20454;-71
2022/10/11 01:50:43;;;;;;;1999.90;999.90;;;9.80;99.90;;;;;;5053311;28;20453;-70
2022/10/11 01:53:24;;;;;;;1999.90;999.90;;;9.90;99.90;;;;;;5046195;28;20497;-70
2022/10/11 01:55:55;;;;;;;1999.90;999.90;;;9.90;99.90;;;;;;5048198;28;20439;-69
2022/10/11 01:58:34;;;;;;;1999.90;999.90;;;9.80;99.90;;;;;;5052699;28;20935;-69
2022/10/11 02:01:15;;;;;;;1999.90;999.90;;;9.70;99.90;;;;;;5052834;28;20446;-70
2022/10/11 02:03:47;;;;;;;1999.90;999.90;;;9.70;99.90;;;;;;5039135;28;20483;-70
2022/10/11 02:06:20;;;;;;;1999.90;999.90;;;9.70;99.90;;;;;;5050920;28;20477;-70
2022/10/11 02:08:55;;;;;;;1999.90;999.90;;;9.70;99.90;;;;;;5052508;28;20450;-69
2022/10/11 02:11:26;;;;;;;1999.90;999.90;;;9.60;99.90;;;;;;5052599;28;20828;-70
2022/10/11 02:13:57;;;;;;;1999.90;999.90;;;9.60;99.90;;;;;;5052377;28;20466;-70
2022/10/11 02:16:28;;;;;;;1999.90;999.90;;;9.60;99.90;;;;;;5048741;28;20426;-69
2022/10/11 02:18:57;;;;;;;1999.90;999.90;;;9.60;99.90;;;;;;5041074;28;20439;-69
2022/10/11 02:21:24;;;;;;;1999.90;999.90;;;9.60;99.90;;;;;;5052106;28;20446;-69
2022/10/11 02:23:56;;;;;;;1999.90;999.90;;;9.50;99.90;;;;;;5052019;28;20482;-70
2022/10/11 02:26:24;;;;;;;1999.90;999.90;;;9.50;99.90;;;;;;5052255;28;20462;-70
2022/10/11 02:28:55;;;;;;;1999.90;999.90;;;9.50;99.90;;;;;;5052259;28;20453;-70
2022/10/11 02:31:22;;;;;;;1999.90;999.90;;;9.50;99.90;;;;;;5045087;28;20462;-70
2022/10/11 02:33:58;;;;;;;1999.90;999.90;;;9.50;99.90;;;;;;5043863;28;20862;-70
2022/10/11 02:36:32;;;;;;;1999.90;999.90;;;9.50;99.90;;;;;;5052202;28;20801;-72
2022/10/11 02:39:07;;;;;;;1999.90;999.90;;;9.50;99.90;;;;;;5052467;28;20548;-70
2022/10/11 02:41:38;;;;;;;1999.90;999.90;;;9.40;99.90;;;;;;5052367;28;20426;-70
2022/10/11 02:44:09;;;;;;;1999.90;999.90;;;9.30;99.90;;;;;;5051775;28;20839;-70
2022/10/11 02:46:37;;;;;;;1999.90;999.90;;;9.30;99.90;;;;;;5042469;28;21010;-70
2022/10/11 02:49:07;;;;;;;1999.90;999.90;;;9.30;99.90;;;;;;5043717;28;20568;-70
2022/10/11 02:51:34;;;;;;;1999.90;999.90;;;9.30;99.90;;;;;;5052142;28;20453;-70
2022/10/11 02:54:00;;;;;;;1999.90;999.90;;;9.20;99.90;;;;;;5051964;28;20488;-69
2022/10/11 02:56:27;;;;;;;1999.90;999.90;;;9.20;99.90;;;;;;5051396;28;20453;-71
2022/10/11 02:58:54;;;;;;;1999.90;999.90;;;9.20;99.90;;;;;;5051811;28;20450;-73
2022/10/11 03:01:21;;;;;;;1999.90;999.90;;;9.20;99.90;;;;;;5040552;28;20472;-70
2022/10/11 03:03:48;;;;;;;1999.90;999.90;;;9.10;99.90;;;;;;5046761;28;20470;-70
2022/10/11 03:06:16;;;;;;;1999.90;999.90;;;9.10;99.90;;;;;;5051446;28;20477;-71
2022/10/11 03:08:42;;;;;;;1999.90;999.90;;;9.10;99.90;;;;;;5051592;28;20934;-69
2022/10/11 03:11:09;;;;;;;1999.90;999.90;;;9.20;99.90;;;;;;5051757;28;20484;-70
2022/10/11 03:13:36;;;;;;;1999.90;999.90;;;9.10;99.90;;;;;;5051669;28;21009;-71
2022/10/11 03:16:03;;;;;;;1999.90;999.90;;;9.10;99.90;;;;;;5046569;28;20981;-72
2022/10/11 03:18:30;;;;;;;1999.90;999.90;;;9.10;99.90;;;;;;5044056;28;20446;-71
2022/10/11 03:20:56;;;;;;;1999.90;999.90;;;9.10;99.90;;;;;;5050682;28;20446;-69
2022/10/11 03:23:25;;;;;;;1999.90;999.90;;;9.00;99.90;;;;;;5051334;28;21016;-71
2022/10/11 03:25:51;;;;;;;1999.90;999.90;;;9.10;99.90;;;;;;5051190;28;20472;-71
2022/10/11 03:28:18;;;;;;;1999.90;999.90;;;9.00;99.90;;;;;;5047678;28;20471;-72
2022/10/11 03:30:47;;;;;;;1999.90;999.90;;;9.00;99.90;;;;;;5037687;28;20473;-71
2022/10/11 03:33:13;;;;;;;1999.90;999.90;;;9.10;99.90;;;;;;5042952;28;21001;-71
2022/10/11 03:35:40;;;;;;;1999.90;999.90;;;8.90;99.90;;;;;;5051044;28;20446;-71
2022/10/11 03:38:07;;;;;;;1999.90;999.90;;;9.00;99.90;;;;;;5051643;28;20469;-71
2022/10/11 03:40:35;;;;;;;1999.90;999.90;;;8.90;99.90;;;;;;5051585;28;20465;-71
2022/10/11 03:43:02;;;;;;;1999.90;999.90;;;8.90;99.90;;;;;;5051494;28;20493;-72
2022/10/11 03:45:29;;;;;;;1999.90;999.90;;;9.10;99.90;;;;;;5044612;28;20947;-71
2022/10/11 03:47:56;;;;;;;1999.90;999.90;;;9.00;99.90;;;;;;5047145;28;20489;-70
2022/10/11 03:50:23;;;;;;;1999.90;999.90;;;9.00;99.90;;;;;;5051561;28;20449;-71
2022/10/11 03:52:50;;;;;;;1999.90;999.90;;;9.10;99.90;;;;;;5051351;28;20524;-70
2022/10/11 03:55:17;;;;;;;1999.90;999.90;;;9.00;99.90;;;;;;5050686;28;20981;-71
2022/10/11 03:57:45;;;;;;;1999.90;999.90;;;8.90;99.90;;;;;;5051445;28;20465;-71
2022/10/11 04:00:13;;;;;;;1999.90;999.90;;;9.00;99.90;;;;;;5040044;28;21001;-71
2022/10/11 04:02:39;;;;;;;1999.90;999.90;;;9.00;99.90;;;;;;5044647;28;20990;-71
2022/10/11 04:05:07;;;;;;;1999.90;999.90;;;9.00;99.90;;;;;;5050813;28;20819;-71
2022/10/11 04:07:33;;;;;;;1999.90;999.90;;;9.00;99.90;;;;;;5051004;28;20478;-71
2022/10/11 04:10:00;;;;;;;1999.90;999.90;;;8.90;99.90;;;;;;5051621;28;20487;-71
2022/10/11 04:12:27;;;;;;;1999.90;999.90;;;8.90;99.90;;;;;;5055179;28;20445;-71
2022/10/11 04:14:55;;;;;;;1999.90;999.90;;;8.90;99.90;;;;;;5043868;28;20459;-71
2022/10/11 04:17:22;;;;;;;1999.90;999.90;;;8.90;99.90;;;;;;5054756;28;20442;-71
2022/10/11 04:19:49;;;;;;;1999.90;999.90;;;9.00;99.90;;;;;;5054912;28;20449;-71
2022/10/11 04:22:16;;;;;;;1999.90;999.90;;;9.10;99.90;;;;;;5054155;28;20446;-71
2022/10/11 04:24:42;;;;;;;1999.90;999.90;;;9.00;99.90;;;;;;5054309;28;20442;-71
2022/10/11 04:27:09;;;;;;;1999.90;999.90;;;9.00;99.90;;;;;;5053403;28;20481;-71
2022/10/11 04:29:36;;;;;;;1999.90;999.90;;;9.00;99.90;;;;;;5046344;28;20446;-71
2022/10/11 04:32:04;;;;;;;1999.90;999.90;;;9.00;99.90;;;;;;5054928;28;20524;-71
2022/10/11 04:34:31;;;;;;;1999.90;999.90;;;9.10;99.90;;;;;;5054182;28;20466;-71
2022/10/11 04:36:58;;;;;;;1999.90;999.90;;;9.00;99.90;;;;;;5047271;28;20474;-71
2022/10/11 04:39:24;;;;;;;1999.90;999.90;;;9.00;99.90;;;;;;5045876;28;20962;-71
2022/10/11 04:41:51;;;;;;;1999.90;999.90;;;9.00;99.90;;;;;;5053940;28;20816;-71
2022/10/11 04:44:18;;;;;;;1999.90;999.90;;;9.00;99.90;;;;;;5044136;28;20490;-69
2022/10/11 04:46:44;;;;;;;1999.90;999.90;;;8.90;99.90;;;;;;5045772;28;20481;-72
2022/10/11 04:49:13;;;;;;;1999.90;999.90;;;9.20;99.90;;;;;;5054267;28;20456;-71
2022/10/11 04:51:39;;;;;;;1999.90;999.90;;;9.00;99.90;;;;;;5054184;28;20446;-72
2022/10/11 04:54:06;;;;;;;1999.90;999.90;;;8.90;99.90;;;;;;5053797;28;20474;-71
2022/10/11 04:56:33;;;;;;;1999.90;999.90;;;8.90;99.90;;;;;;5053649;28;20457;-71
2022/10/11 04:59:00;;;;;;;1999.90;999.90;;;9.20;99.90;;;;;;5051411;28;20460;-71
2022/10/11 05:01:26;;;;;;;1999.90;999.90;;;8.80;99.90;;;;;;5040554;28;20463;-70
2022/10/11 05:03:53;;;;;;;1999.90;999.90;;;8.60;99.90;;;;;;5047743;28;20482;-71
2022/10/11 05:06:21;;;;;;;1999.90;999.90;;;8.50;99.90;;;;;;5044679;28;20450;-72
2022/10/11 05:08:48;;;;;;;1999.90;999.90;;;8.40;99.90;;;;;;5053604;28;20451;-72
2022/10/11 05:11:16;;;;;;;1999.90;999.90;;;8.50;99.90;;;;;;5053838;28;20446;-69
2022/10/11 05:13:44;;;;;;;1999.90;999.90;;;8.20;99.90;;;;;;5053431;28;20466;-69
2022/10/11 05:16:11;;;;;;;1999.90;999.90;;;8.10;99.90;;;;;;5045462;28;20471;-71
2022/10/11 05:18:39;;;;;;;1999.90;999.90;;;8.00;99.90;;;;;;5045183;28;20461;-69
2022/10/11 05:21:08;;;;;;;1999.90;999.90;;;8.00;99.90;;;;;;5052328;28;20446;-71
2022/10/11 05:23:36;;;;;;;1999.90;999.90;;;7.90;99.90;;;;;;5052480;28;20478;-71
2022/10/11 05:26:03;;;;;;;1999.90;999.90;;;7.90;99.90;;;;;;5053215;28;20442;-69
2022/10/11 05:28:30;;;;;;;1999.90;999.90;;;8.00;99.90;;;;;;5053643;28;20478;-69
2022/10/11 05:30:57;;;;;;;1999.90;999.90;;;8.10;99.90;;;;;;5043850;28;20835;-68
2022/10/11 05:33:25;;;;;;;1999.90;999.90;;;8.00;99.90;;;;;;5044449;28;20462;-70
2022/10/11 05:35:52;;;;;;;1999.90;999.90;;;8.00;99.90;;;;;;5052934;28;20449;-69
2022/10/11 05:38:18;;;;;;;1999.90;999.90;;;8.00;99.90;;;;;;5053422;28;20448;-70
2022/10/11 05:40:46;;;;;;;1999.90;999.90;;;8.00;99.90;;;;;;5053133;28;20446;-69
2022/10/11 05:43:13;;;;;;;1999.90;999.90;;;7.90;99.90;;;;;;5046527;28;20487;-70
2022/10/11 05:45:42;;;;;;;1999.90;999.90;;;7.90;99.90;;;;;;5041638;28;20516;-69
2022/10/11 05:48:09;;;;;;;1999.90;999.90;;;7.90;99.90;;;;;;5044519;28;20849;-69
2022/10/11 05:50:37;;;;;;;1999.90;999.90;;;7.80;99.90;;;;;;5053049;28;20438;-69
2022/10/11 05:53:04;;;;;;;1999.90;999.90;;;7.80;99.90;;;;;;5052490;28;20477;-70
2022/10/11 05:55:35;;;;;;;1999.90;999.90;;;7.90;99.90;;;;;;5053961;28;20460;-69
2022/10/11 05:58:04;;;;;;;1999.90;999.90;;;8.00;99.90;;;;;;5052825;28;20449;-69
2022/10/11 06:00:30;;;;;;;1999.90;999.90;;;8.00;99.90;;;;;;5045633;28;20467;-69
2022/10/11 06:02:57;;;;;;;1999.90;999.90;;;7.90;99.90;;;;;;5040174;28;20487;-68
2022/10/11 06:05:24;;;;;;;1999.90;999.90;;;8.00;99.90;;;;;;5048719;28;20459;-69
2022/10/11 06:07:51;;;;;;;1999.90;999.90;;;8.10;99.90;;;;;;5040820;28;21033;-69
2022/10/11 06:10:18;;;;;;;1999.90;999.90;;;8.20;99.90;;;;;;5051914;28;20446;-70
2022/10/11 06:12:45;;;;;;;1999.90;999.90;;;8.00;99.90;;;;;;5052435;28;21001;-69
2022/10/11 06:15:13;;;;;;;1999.90;999.90;;;8.10;99.90;;;;;;5048068;28;20953;-69
2022/10/11 06:17:40;;;;;;;1999.90;999.90;;;8.20;99.90;;;;;;5034529;28;20803;-69
2022/10/11 06:20:08;;;;;;;1999.90;999.90;;;8.30;99.90;;;;;;5049938;28;20457;-69
2022/10/11 06:22:34;;;;;;;1999.90;999.90;;;8.50;99.90;;;;;;5051749;28;20450;-71
2022/10/11 06:25:01;;;;;;;1999.90;999.90;;;8.60;99.90;;;;;;5053051;28;20450;-71
2022/10/11 06:27:28;;;;;;;1999.90;999.90;;;8.90;99.90;;;;;;5052666;28;20482;-71
2022/10/11 06:29:55;;;;;;;1999.90;999.90;;;9.00;99.90;;;;;;5049714;28;20457;-71
2022/10/11 06:32:23;;;;;;;1999.90;999.90;;;9.10;99.90;;;;;;5046136;28;20546;-71
2022/10/11 06:34:50;;;;;;;1999.90;999.90;;;9.20;99.90;;;;;;5046923;28;20446;-71
2022/10/11 06:37:17;;;;;;;1999.90;999.90;;;9.40;99.90;;;;;;5052396;28;20442;-71
2022/10/11 06:39:43;;;;;;;1999.90;999.90;;;9.60;99.90;;;;;;5052111;28;20808;-71
2022/10/11 06:42:11;;;;;;;1999.90;999.90;;;9.80;99.90;;;;;;5052014;28;20807;-72
2022/10/11 06:44:38;;;;;;;1999.90;999.90;;;9.90;99.90;;;;;;5049222;28;21055;-69
2022/10/11 06:47:06;;;;;;;1999.90;999.90;;;10.10;99.90;;;;;;5043558;28;20469;-71
2022/10/11 06:49:35;;;;;;;1999.90;999.90;;;10.40;99.90;;;;;;5051982;28;20449;-70
2022/10/11 06:52:01;;;;;;;1999.90;999.90;;;10.60;99.90;;;;;;5052002;28;20453;-70
2022/10/11 06:54:28;;;;;;;1999.90;999.90;;;10.70;99.90;;;;;;5051468;28;20462;-70
2022/10/11 06:56:55;;;;;;;1999.90;999.90;;;10.80;99.90;;;;;;5051628;28;20441;-70
2022/10/11 06:59:22;;;;;;;1999.90;999.90;;;10.80;99.90;;;;;;5048029;28;20473;-69
2022/10/11 07:01:48;;;;;;;1999.90;999.90;;;10.90;99.90;;;;;;5043821;28;20442;-69
2022/10/11 07:04:15;;;;;;;1999.90;999.90;;;11.10;99.90;;;;;;5051498;28;20843;-70
2022/10/11 07:06:43;;;;;;;1999.90;999.90;;;11.30;99.90;;;;;;5051679;28;20446;-70
2022/10/11 07:09:10;;;;;;;1999.90;999.90;;;11.30;99.90;;;;;;5051757;28;20486;-69
2022/10/11 07:11:37;;;;;;;1999.90;999.90;;;11.40;99.90;;;;;;5051833;28;20457;-68
2022/10/11 07:14:06;;;;;;;1999.90;999.90;;;11.30;99.90;;;;;;5042352;28;20483;-68
2022/10/11 07:16:34;;;;;;;1999.90;999.90;;;11.50;99.90;;;;;;5043175;28;20474;-69
2022/10/11 07:19:02;;;;;;;1999.90;999.90;;;11.70;99.90;;;;;;5051275;28;20450;-69
2022/10/11 07:21:30;;;;;;;1999.90;999.90;;;11.90;99.90;;;;;;5051293;28;20446;-68
2022/10/11 07:23:59;;;;;;;1999.90;999.90;;;12.10;99.90;;;;;;5050042;28;20514;-71
2022/10/11 07:26:26;;;;;;;1999.90;999.90;;;12.20;99.90;;;;;;5030516;28;20462;-69
2022/10/11 07:28:53;;;;;;;1999.90;999.90;;;12.20;99.90;;;;;;5036923;28;20999;-70
2022/10/11 07:31:22;;;;;;;1999.90;999.90;;;12.20;99.90;;;;;;5042462;28;20454;-68
2022/10/11 07:33:49;;;;;;;1999.90;999.90;;;12.40;99.90;;;;;;5051501;28;20469;-69
2022/10/11 07:36:16;;;;;;;1999.90;999.90;;;12.30;99.90;;;;;;5051263;28;20446;-69
2022/10/11 07:38:45;;;;;;;1999.90;999.90;;;12.30;99.90;;;;;;5045735;28;20463;-68
2022/10/11 07:41:13;;;;;;;1999.90;999.90;;;12.50;99.90;;;;;;5041115;28;20497;-69
2022/10/11 07:43:42;;;;;;;1999.90;999.90;;;12.60;99.90;;;;;;5051388;28;20474;-69
2022/10/11 07:46:09;;;;;;;1999.90;999.90;;;12.70;99.90;;;;;;5053493;28;20940;-69
2022/10/11 07:48:36;;;;;;;1999.90;999.90;;;12.70;99.90;;;;;;5055469;28;20477;-69
2022/10/11 07:51:05;;;;;;;1999.90;999.90;;;12.90;99.90;;;;;;5055451;28;20450;-68
2022/10/11 07:53:32;;;;;;;1999.90;999.90;;;12.80;99.90;;;;;;5049121;28;21047;-69
2022/10/11 07:56:02;;;;;;;1999.90;999.90;;;12.70;99.90;;;;;;5043171;28;20931;-69
2022/10/11 07:58:30;;;;;;;1999.90;999.90;;;12.80;99.90;;;;;;5035043;28;20446;-68
2022/10/11 08:00:57;;;;;;;1999.90;999.90;;;13.00;99.90;;;;;;5035431;28;20449;-71
2022/10/11 08:03:23;;;;;;;1999.90;999.90;;;13.00;99.90;;;;;;5034748;28;20847;-71
2022/10/11 08:05:51;;;;;;;1999.90;999.90;;;13.00;99.90;;;;;;5034867;28;20447;-70
2022/10/11 08:08:19;;;;;;;1999.90;999.90;;;13.00;99.90;;;;;;5036932;28;20575;-70
2022/10/11 08:10:45;;;;;;;1999.90;999.90;;;13.00;99.90;;;;;;5044615;28;20467;-67
2022/10/11 08:13:13;;;;;;;1999.90;999.90;;;13.10;99.90;;;;;;5053119;28;20480;-68
2022/10/11 08:15:41;;;;;;;1999.90;999.90;;;13.10;99.90;;;;;;5054531;28;20446;-68
2022/10/11 08:18:08;;;;;;;1999.90;999.90;;;13.30;99.90;;;;;;5055101;28;20442;-71
2022/10/11 08:20:35;;;;;;;1999.90;999.90;;;13.40;99.90;;;;;;5055122;28;20457;-68
2022/10/11 08:23:01;;;;;;;1999.90;999.90;;;13.20;99.90;;;;;;5053921;28;21012;-69
2022/10/11 08:25:28;;;;;;;1999.90;999.90;;;13.30;99.90;;;;;;5043938;28;20986;-69
2022/10/11 08:27:55;;;;;;;1999.90;999.90;;;13.20;99.90;;;;;;5042788;28;20871;-70
2022/10/11 08:30:22;;;;;;;1999.90;999.90;;;13.30;99.90;;;;;;5053968;28;20950;-70
2022/10/11 08:32:50;;;;;;;1999.90;999.90;;;13.30;99.90;;;;;;5054735;28;20481;-67
2022/10/11 08:35:17;;;;;;;1999.90;999.90;;;13.40;99.90;;;;;;5054040;28;20961;-68
2022/10/11 08:37:43;;;;;;;1999.90;999.90;;;13.60;99.90;;;;;;5052110;28;20449;-68
2022/10/11 08:40:15;;;;;;;1999.90;999.90;;;13.70;99.90;;;;;;5044113;28;20454;-68
2022/10/11 08:42:46;;;;;;;1999.90;999.90;;;14.00;99.90;;;;;;5054563;28;20556;-70
2022/10/11 08:45:24;;;;;;;1999.90;999.90;;;14.20;99.90;;;;;;5054183;28;20435;-68
2022/10/11 08:48:02;;;;;;;1999.90;999.90;;;14.30;99.90;;;;;;5054459;28;20519;-68
2022/10/11 08:50:30;;;;;;;1999.90;999.90;;;14.30;99.90;;;;;;5054207;28;20446;-68
2022/10/11 08:52:59;;;;;;;1999.90;999.90;;;14.30;99.90;;;;;;5048269;28;20509;-69
2022/10/11 08:55:36;;;;;;;1999.90;999.90;;;14.50;99.90;;;;;;5034277;28;20451;-68
2022/10/11 08:58:03;;;;;;;1999.90;999.90;;;14.70;99.90;;;;;;5034095;28;20443;-69
2022/10/11 09:00:32;;;;;;;1999.90;999.90;;;15.00;99.90;;;;;;5033896;28;20454;-67
2022/10/11 09:03:10;;;;;;;1999.90;999.90;;;15.00;99.90;;;;;;5033811;28;20463;-68
2022/10/11 09:05:49;;;;;;;1999.90;999.90;;;14.50;99.90;;;;;;5033693;28;20820;-68
2022/10/11 09:08:24;;;;;;;1999.90;999.90;;;14.50;99.90;;;;;;5038977;28;20501;-67
2022/10/11 09:10:58;;;;;;;1999.90;999.90;;;14.60;99.90;;;;;;5045441;28;20438;-68
2022/10/11 09:13:43;;;;;;;1999.90;999.90;;;14.30;99.90;;;;;;5053615;28;20996;-68
2022/10/11 09:16:20;;;;;;;1999.90;999.90;;;14.30;99.90;;;;;;5053870;28;20441;-67
2022/10/11 09:19:18;;;;;;;1999.90;999.90;;;14.40;99.90;;;;;;5053724;28;20442;-67
2022/10/11 09:21:51;;;;;;;1999.90;999.90;;;14.40;99.90;;;;;;5053465;28;20445;-67
2022/10/11 09:24:40;;;;;;;1999.90;999.90;;;14.40;99.90;;;;;;5042924;28;20849;-67
2022/10/11 09:27:17;;;;;;;1999.90;999.90;;;14.60;99.90;;;;;;5044202;28;20836;-70
2022/10/11 09:29:55;;;;;;;1999.90;999.90;;;14.60;99.90;;;;;;5053510;28;20486;-70
2022/10/11 09:32:24;;;;;;;1999.90;999.90;;;14.80;99.90;;;;;;5053462;28;20450;-70
2022/10/11 09:34:59;;;;;;;1999.90;999.90;;;14.90;99.90;;;;;;5053132;28;20490;-70
2022/10/11 09:37:32;;;;;;;1999.90;999.90;;;15.10;99.90;;;;;;5047778;28;20469;-70
2022/10/11 09:40:06;;;;;;;1999.90;999.90;;;15.10;99.90;;;;;;5045130;28;20863;-69
2022/10/11 09:42:32;;;;;;;1999.90;999.90;;;15.20;99.90;;;;;;5053068;28;20454;-69
2022/10/11 09:45:01;;;;;;;1999.90;999.90;;;15.10;99.90;;;;;;5053039;28;20442;-70
2022/10/11 09:47:31;;;;;;;1999.90;999.90;;;15.00;99.90;;;;;;5042479;28;20466;-69
2022/10/11 09:50:02;;;;;;;1999.90;999.90;;;14.90;99.90;;;;;;5038858;28;20487;-70
2022/10/11 09:52:29;;;;;;;1999.90;999.90;;;15.30;99.90;;;;;;5041361;28;20455;-70
2022/10/11 09:54:59;;;;;;;1999.90;999.90;;;15.30;99.90;;;;;;5048907;28;20446;-68
2022/10/11 09:57:28;;;;;;;1999.90;999.90;;;15.50;99.90;;;;;;5052786;28;20899;-70
2022/10/11 10:00:01;;;;;;;1999.90;999.90;;;15.50;99.90;;;;;;5052750;28;20931;-70
2022/10/11 10:02:29;;;;;;;1999.90;999.90;;;15.50;99.90;;;;;;5052855;28;20450;-70
2022/10/11 10:05:14;;;;;;;1999.90;999.90;;;15.60;99.90;;;;;;5048261;28;20840;-69
2022/10/11 10:08:06;;;;;;;1999.90;999.90;;;15.50;99.90;;;;;;5040152;28;20937;-70
2022/10/11 10:10:38;;;;;;;1999.90;999.90;;;15.20;99.90;;;;;;5052932;28;20422;-70
2022/10/11 10:13:14;;;;;;;1999.90;999.90;;;15.00;99.90;;;;;;5052598;28;20496;-69
2022/10/11 10:15:46;;;;;;;1999.90;999.90;;;14.90;99.90;;;;;;5052623;28;20430;-68
2022/10/11 10:18:21;;;;;;;1999.90;999.90;;;14.60;99.90;;;;;;5052541;28;20499;-68
2022/10/11 10:20:55;;;;;;;1999.90;999.90;;;14.30;99.90;;;;;;5039815;28;20462;-67
2022/10/11 10:23:24;;;;;;;1999.90;999.90;;;14.30;99.90;;;;;;5051832;28;20489;-68
2022/10/11 10:25:51;;;;;;;1999.90;999.90;;;14.20;99.90;;;;;;5052318;28;20450;-68
2022/10/11 10:28:22;;;;;;;1999.90;999.90;;;14.20;99.90;;;;;;5052124;28;20482;-68
2022/10/11 10:30:54;;;;;;;1999.90;999.90;;;14.10;99.90;;;;;;5052425;28;20537;-67
2022/10/11 10:33:22;;;;;;;1999.90;999.90;;;14.20;99.90;;;;;;5038715;28;20645;-68
2022/10/11 10:35:55;;;;;;;1999.90;999.90;;;14.30;99.90;;;;;;5012013;28;20899;-68
2022/10/11 10:38:26;;;;;;;1999.90;999.90;;;14.40;99.90;;;;;;5012736;28;20432;-68
2022/10/11 10:40:55;;;;;;;1999.90;999.90;;;14.60;99.90;;;;;;5012493;28;20932;-68
2022/10/11 10:43:24;;;;;;;1999.90;999.90;;;14.60;99.90;;;;;;5012299;28;21003;-68
2022/10/11 10:46:12;;;;;;;1999.90;999.90;;;14.60;99.90;;;;;;5012323;28;20448;-68
2022/10/11 10:48:45;;;;;;;1999.90;999.90;;;15.10;99.90;;;;;;5027602;28;20920;-68
2022/10/11 10:51:22;;;;;;;1999.90;999.90;;;15.40;99.90;;;;;;5043614;28;20450;-69
2022/10/11 10:53:54;;;;;;;1999.90;999.90;;;15.70;99.90;;;;;;5051961;28;20515;-69
2022/10/11 10:56:27;;;;;;;1999.90;999.90;;;15.70;99.90;;;;;;5051958;28;20533;-69
2022/10/11 10:59:10;;;;;;;1999.90;999.90;;;15.90;99.90;;;;;;5051945;28;20430;-68
2022/10/11 11:01:49;;;;;;;1999.90;999.90;;;15.70;99.90;;;;;;5049383;28;20434;-68
2022/10/11 11:04:25;;;;;;;1999.90;999.90;;;15.50;99.90;;;;;;5042150;28;20463;-69
2022/10/11 11:06:58;;;;;;;1999.90;999.90;;;15.20;99.90;;;;;;5051605;28;20480;-68
2022/10/11 11:09:35;;;;;;;1999.90;999.90;;;15.00;99.90;;;;;;5051550;28;20489;-68
2022/10/11 11:12:15;;;;;;;1999.90;999.90;;;14.90;99.90;;;;;;5051527;28;20438;-68
2022/10/11 11:14:51;;;;;;;1999.90;999.90;;;14.90;99.90;;;;;;5051210;28;20568;-68
2022/10/11 11:17:26;;;;;;;1999.90;999.90;;;15.20;99.90;;;;;;5043256;28;20482;-68
2022/10/11 11:20:03;;;;;;;1999.90;999.90;;;15.40;99.90;;;;;;5043434;28;20442;-69
2022/10/11 11:22:40;;;;;;;1999.90;999.90;;;15.40;99.90;;;;;;5051288;28;20446;-68
2022/10/11 11:25:22;;;;;;;1999.90;999.90;;;15.70;99.90;;;;;;5050908;28;20453;-68
2022/10/11 11:28:02;;;;;;;1999.90;999.90;;;15.50;99.90;;;;;;5051631;28;20446;-68
2022/10/11 11:30:40;;;;;;;1999.90;999.90;;;15.50;99.90;;;;;;5049565;28;20473;-68
2022/10/11 11:33:16;;;;;;;1999.90;999.90;;;15.60;99.90;;;;;;5040871;28;20463;-68
2022/10/11 11:35:45;;;;;;;1999.90;999.90;;;15.90;99.90;;;;;;5050812;28;20448;-68
2022/10/11 11:38:19;;;;;;;1999.90;999.90;;;16.20;99.90;;;;;;5051407;28;20442;-68
2022/10/11 11:40:49;;;;;;;1999.90;999.90;;;16.20;99.90;;;;;;5051452;28;20926;-68
2022/10/11 11:43:21;;;;;;;1999.90;999.90;;;16.10;99.90;;;;;;5051384;28;20462;-69
2022/10/11 11:45:52;;;;;;;1999.90;999.90;;;16.40;99.90;;;;;;5044275;28;20463;-68
2022/10/11 11:48:23;;;;;;;1999.90;999.90;;;16.50;99.90;;;;;;5042119;28;20955;-68
2022/10/11 11:50:58;;;;;;;1999.90;999.90;;;16.10;99.90;;;;;;5051218;28;21168;-69
2022/10/11 11:53:40;;;;;;;1999.90;999.90;;;16.10;99.90;;;;;;5051549;28;20469;-68
2022/10/11 11:56:24;;;;;;;1999.90;999.90;;;16.20;99.90;;;;;;5050656;28;20449;-68
2022/10/11 11:58:59;;;;;;;1999.90;999.90;;;16.40;99.90;;;;;;5051282;28;20438;-69
2022/10/11 12:01:32;;;;;;;1999.90;999.90;;;16.80;99.90;;;;;;5040399;28;20845;-68
2022/10/11 12:04:04;;;;;;;1999.90;999.90;;;17.10;99.20;;;;;;5047634;28;20478;-69
2022/10/11 12:06:33;;;;;;;1999.90;999.90;;;17.10;99.50;;;;;;5050873;28;20449;-68
2022/10/11 12:09:08;;;;;;;1999.90;999.90;;;17.10;99.40;;;;;;5051170;28;20486;-69
2022/10/11 12:11:45;;;;;;;1999.90;999.90;;;17.10;99.20;;;;;;5051165;28;20599;-68
2022/10/11 12:14:23;;;;;;;1999.90;999.90;;;17.00;98.80;;;;;;5048620;28;20470;-68
2022/10/11 12:17:11;;;;;;;1999.90;999.90;;;17.00;98.20;;;;;;5037638;28;20458;-68
2022/10/11 12:19:40;;;;;;;1999.90;999.90;;;17.60;97.30;;;;;;5038332;28;20469;-68